.
WxDataArchive / Data Records for 2013-11-07
2013-11-06 November 2013 2013-11-08

Data Records for Thursday, 07 November 2013

Time	Temp	Chill	HIndex	Humid	Dewpt	 Wind 	HiWind	WindDir	Rain 	Barom 
-----	----	-----	------	-----	-----	------	------	-------	-----	----- 
00:00	42.8	42.8	42.8	84	38.3	2	5	292	0.00	30.038 
00:05	42.6	42.6	42.6	84	38.1	1	4	292	0.00	30.038 
00:10	42.6	42.6	42.6	84	38.1	1	4	292	0.00	30.038 
00:15	42.6	42.6	42.6	85	38.4	1	4	292	0.00	30.048 
00:20	42.6	42.6	42.6	85	38.4	1	3	270	0.00	30.048 
00:25	42.8	42.8	42.8	85	38.6	0	3	270	0.00	30.048 
00:30	42.8	42.8	42.8	85	38.6	0	3	270	0.00	30.044 
00:35	42.6	42.6	42.6	85	38.4	1	3	270	0.00	30.044 
00:40	42.6	42.6	42.6	85	38.4	0	1	270	0.00	30.044 
00:45	42.6	42.6	42.6	85	38.4	1	3	270	0.00	30.042 
00:50	42.5	42.5	42.5	85	38.3	1	4	270	0.00	30.042 
00:55	42.3	42.3	42.3	85	38.1	1	3	292	0.00	30.042 
01:00	42.3	42.3	42.3	84	37.8	1	4	292	0.00	30.052 
01:05	42.3	42.3	42.3	84	37.8	2	4	292	0.00	30.052 
01:10	42.3	42.3	42.3	84	37.8	1	3	315	0.00	30.052 
01:15	42.3	42.3	42.3	84	37.8	1	3	315	0.00	30.059 
01:20	42.3	42.3	42.3	84	37.8	1	3	270	0.00	30.059 
01:25	42.2	42.2	42.2	83	37.4	1	4	292	0.00	30.059 
01:30	42.2	42.2	42.2	83	37.4	1	4	315	0.00	30.071 
01:35	42.2	42.2	42.2	83	37.4	1	4	270	0.00	30.071 
01:40	42.2	42.2	42.2	83	37.4	1	4	315	0.00	30.071 
01:45	42.2	42.2	42.2	83	37.4	1	3	315	0.00	30.070 
01:50	42.2	42.2	42.2	83	37.4	0	2	315	0.00	30.070 
01:55	42.2	42.2	42.2	83	37.4	1	3	315	0.00	30.070 
02:00	42.2	42.2	42.2	84	37.7	0	4	315	0.00	30.071 
02:05	42.2	42.2	42.2	84	37.7	1	4	315	0.00	30.071 
02:10	42.2	42.2	42.2	84	37.7	1	3	315	0.00	30.071 
02:15	42.2	42.2	42.2	84	37.7	2	4	315	0.00	30.069 
02:20	42.2	42.2	42.2	84	37.7	1	3	315	0.00	30.069 
02:25	42.1	42.1	42.1	84	37.6	1	3	315	0.00	30.069 
02:30	42.1	42.1	42.1	84	37.6	1	4	315	0.00	30.069 
02:35	42.1	42.1	42.1	84	37.6	0	2	315	0.00	30.069 
02:40	42.1	42.1	42.1	83	37.3	1	3	315	0.00	30.069 
02:45	42.1	42.1	42.1	83	37.3	1	4	315	0.00	30.065 
02:50	42.1	42.1	42.1	81	36.7	2	5	315	0.00	30.065 
02:55	42.2	42.2	42.2	81	36.8	2	4	315	0.00	30.065 
03:00	42.2	42.2	42.2	81	36.8	1	3	270	0.00	30.066 
03:05	42.1	42.1	42.1	80	36.4	1	4	315	0.00	30.066 
03:10	42.1	42.1	42.1	79	36.1	2	4	292	0.00	30.066 
03:15	41.9	41.9	41.9	78	35.5	1	5	292	0.00	30.070 
03:20	41.8	41.8	41.8	78	35.5	0	1	292	0.00	30.070 
03:25	41.6	41.6	41.6	78	35.3	1	4	292	0.00	30.070 
03:30	41.6	41.6	41.6	78	35.3	1	3	292	0.00	30.067 
03:35	41.5	41.5	41.5	77	34.8	2	6	292	0.00	30.067 
03:40	41.3	41.3	41.3	76	34.3	0	2	292	0.00	30.067 
03:45	41.1	41.1	41.1	75	33.8	1	4	292	0.00	30.073 
03:50	41.1	41.1	41.1	75	33.8	1	3	292	0.00	30.073 
03:55	40.9	40.9	40.9	75	33.6	0	2	292	0.00	30.073 
04:00	40.8	40.8	40.8	75	33.5	1	3	292	0.00	30.077 
04:05	40.6	40.6	40.6	75	33.3	1	3	292	0.00	30.077 
04:10	40.5	40.5	40.5	75	33.2	1	4	292	0.00	30.077 
04:15	40.5	40.5	40.5	75	33.2	1	3	292	0.00	30.088 
04:20	40.3	40.3	40.3	75	33.0	1	3	292	0.00	30.088 
04:25	40.3	40.3	40.3	75	33.0	1	3	292	0.00	30.088 
04:30	40.2	40.2	40.2	74	32.6	2	5	315	0.00	30.094 
04:35	40.1	40.1	40.1	74	32.5	1	5	292	0.00	30.094 
04:40	39.9	39.9	39.9	74	32.3	1	3	292	0.00	30.094 
04:45	39.8	39.8	39.8	73	31.9	1	5	292	0.00	30.103 
04:50	39.5	39.5	39.5	73	31.6	0	2	270	0.00	30.103 
04:55	39.3	39.3	39.3	74	31.7	1	3	270	0.00	30.103 
05:00	39.1	39.1	39.1	74	31.5	1	3	292	0.00	30.107 
05:05	38.9	38.9	38.9	74	31.3	1	3	292	0.00	30.107 
05:10	38.6	38.6	38.6	74	31.0	1	6	292	0.00	30.107 
05:15	38.5	38.5	38.5	74	30.9	1	6	292	0.00	30.111 
05:20	38.3	38.3	38.3	74	30.8	1	5	292	0.00	30.111 
05:25	38.2	38.2	38.2	74	30.7	1	3	292	0.00	30.111 
05:30	37.9	37.9	37.9	74	30.4	2	5	292	0.00	30.121 
05:35	37.8	37.8	37.8	75	30.6	1	4	270	0.00	30.121 
05:40	37.6	37.6	37.6	75	30.4	1	4	292	0.00	30.121 
05:45	37.3	37.3	37.3	75	30.1	0	3	315	0.00	30.130 
05:50	37.2	37.2	37.2	76	30.3	1	3	315	0.00	30.130 
05:55	37.0	37.0	37.0	76	30.2	0	2	315	0.00	30.130 
06:00	36.8	36.8	36.8	76	30.0	0	2	315	0.00	30.140 
06:05	36.8	36.8	36.8	76	30.0	1	4	315	0.00	30.140 
06:10	36.6	36.6	36.6	76	29.8	0	2	315	0.00	30.140 
06:15	36.5	36.5	36.5	76	29.7	0	1	315	0.00	30.148 
06:20	36.3	36.3	36.3	77	29.8	0	1	315	0.00	30.148 
06:25	36.2	36.2	36.2	77	29.7	0	1	315	0.00	30.148 
06:30	36.2	36.2	36.2	77	29.7	0	1	315	0.00	30.154 
06:35	36.0	36.0	36.0	77	29.5	0	1	315	0.00	30.154 
06:40	35.9	35.9	35.9	77	29.4	0	1	315	0.00	30.154 
06:45	35.8	35.8	35.8	77	29.3	0	1	315	0.00	30.155 
06:50	35.6	35.6	35.6	77	29.1	0	2	315	0.00	30.155 
06:55	35.5	35.5	35.5	77	29.0	0	1	315	0.00	30.155 
07:00	35.3	35.3	35.3	78	29.1	0	1	315	0.00	30.163 
07:05	35.0	35.0	35.0	78	28.8	0	1	315	0.00	30.163 
07:10	34.9	34.9	34.9	79	29.1	0	1	315	0.00	30.163 
07:15	34.7	34.7	34.7	79	28.9	0	0	---	0.00	30.174 
07:20	34.6	34.6	34.6	80	29.1	0	0	---	0.00	30.174 
07:25	34.4	34.4	34.4	80	28.9	0	0	---	0.00	30.174 
07:30	34.3	34.3	34.3	80	28.8	0	0	---	0.00	30.181 
07:35	34.1	34.1	34.1	81	28.9	0	1	315	0.00	30.181 
07:40	34.1	34.1	34.1	81	28.9	0	1	315	0.00	30.181 
07:45	34.1	34.1	34.1	81	28.9	0	0	---	0.00	30.187 
07:50	34.1	34.1	34.1	82	29.2	0	1	315	0.00	30.187 
07:55	34.3	34.3	34.3	82	29.4	0	1	315	0.00	30.187 
08:00	34.4	34.4	34.4	82	29.5	0	1	315	0.00	30.194 
08:05	34.7	34.7	34.7	82	29.8	0	1	315	0.00	30.194 
08:10	34.9	34.9	34.9	81	29.7	0	1	315	0.00	30.194 
08:15	35.2	35.2	35.2	81	30.0	0	2	315	0.00	30.199 
08:20	35.3	35.3	35.3	80	29.8	0	2	315	0.00	30.199 
08:25	35.6	35.6	35.6	80	30.1	0	2	315	0.00	30.199 
08:30	35.9	35.9	35.9	79	30.0	0	1	315	0.00	30.200 
08:35	36.2	36.2	36.2	78	30.0	0	2	315	0.00	30.200 
08:40	36.5	36.5	36.5	77	30.0	0	2	315	0.00	30.200 
08:45	36.6	36.6	36.6	77	30.1	0	3	292	0.00	30.204 
08:50	36.9	36.9	36.9	75	29.7	1	4	292	0.00	30.204 
08:55	37.3	37.3	37.3	75	30.1	1	2	292	0.00	30.204 
09:00	37.6	37.6	37.6	73	29.7	2	4	292	0.00	30.205 
09:05	37.8	37.8	37.8	72	29.6	1	4	270	0.00	30.205 
09:10	38.0	38.0	38.0	72	29.8	1	3	270	0.00	30.205 
09:15	38.5	38.5	38.5	71	29.9	1	4	270	0.00	30.209 
09:20	38.9	38.9	38.9	71	30.3	1	2	270	0.00	30.209 
09:25	39.2	39.2	39.2	70	30.3	1	3	270	0.00	30.209 
09:30	39.5	39.5	39.5	69	30.2	1	3	270	0.00	30.209 
09:35	39.6	39.6	39.6	69	30.3	2	4	270	0.00	30.209 
09:40	39.6	39.6	39.6	67	29.6	1	4	270	0.00	30.209 
09:45	40.1	40.1	40.1	68	30.4	1	3	315	0.00	30.208 
09:50	40.2	40.2	40.2	65	29.4	3	6	315	0.00	30.208 
09:55	40.5	40.5	40.5	65	29.7	2	5	270	0.00	30.208 
10:00	40.6	40.6	40.6	65	29.8	1	4	292	0.00	30.203 
10:05	40.8	40.8	40.8	66	30.3	1	4	270	0.00	30.203 
10:10	41.1	41.1	41.1	64	29.9	2	5	292	0.00	30.203 
10:15	41.2	41.2	41.2	65	30.3	2	5	292	0.00	30.207 
10:20	41.5	41.5	41.5	65	30.6	1	4	315	0.00	30.207 
10:25	41.5	41.5	41.5	63	29.9	2	5	315	0.00	30.207 
10:30	41.6	41.6	41.6	63	30.0	3	4	270	0.00	30.209 
10:35	41.6	41.6	41.6	64	30.3	2	6	315	0.00	30.209 
10:40	41.8	41.8	41.8	64	30.5	2	6	270	0.00	30.209 
10:45	41.9	41.9	41.9	64	30.6	2	5	292	0.00	30.211 
10:50	42.2	42.2	42.2	63	30.5	2	6	315	0.00	30.211 
10:55	42.8	42.8	42.8	63	31.1	2	7	270	0.00	30.211 
11:00	42.9	42.9	42.9	62	30.8	3	6	338	0.00	30.213 
11:05	42.9	42.9	42.9	60	30.0	3	6	270	0.00	30.213 
11:10	43.2	43.2	43.2	62	31.1	2	7	292	0.00	30.213 
11:15	43.6	43.6	43.6	61	31.0	2	6	292	0.00	30.214 
11:20	44.1	44.1	44.1	59	30.7	3	6	270	0.00	30.214 
11:25	43.8	43.8	43.8	59	30.4	2	5	270	0.00	30.214 
11:30	43.9	43.9	43.9	59	30.5	3	6	315	0.00	30.211 
11:35	44.1	44.1	44.1	59	30.7	2	6	270	0.00	30.211 
11:40	43.8	43.8	43.8	57	29.6	3	7	270	0.00	30.211 
11:45	43.8	43.8	43.8	58	30.0	3	6	292	0.00	30.208 
11:50	43.8	43.8	43.8	56	29.1	2	5	292	0.00	30.208 
11:55	43.6	43.6	43.6	56	29.0	2	4	292	0.00	30.208 
12:00	43.9	43.9	43.9	54	28.3	3	6	292	0.00	30.204 
12:05	43.8	43.8	43.8	55	28.7	1	4	270	0.00	30.204 
12:10	44.1	44.1	44.1	56	29.4	1	4	315	0.00	30.204 
12:15	44.1	44.1	44.1	53	28.1	3	5	248	0.00	30.199 
12:20	44.1	44.1	44.1	54	28.5	2	5	292	0.00	30.199 
12:25	44.3	44.3	44.3	55	29.2	2	4	292	0.00	30.199 
12:30	44.6	44.6	44.6	52	28.1	3	7	248	0.00	30.188 
12:35	44.8	44.8	44.8	51	27.8	3	6	292	0.00	30.188 
12:40	44.8	44.8	44.8	51	27.8	3	5	292	0.00	30.188 
12:45	44.6	44.6	44.6	51	27.6	2	5	315	0.00	30.181 
12:50	44.6	44.6	44.6	51	27.6	3	5	270	0.00	30.181 
12:55	44.6	44.6	44.6	50	27.1	2	5	270	0.00	30.181 
13:00	44.9	44.9	44.9	50	27.4	3	5	292	0.00	30.176 
13:05	45.1	45.1	45.1	51	28.1	2	6	270	0.00	30.176 
13:10	45.1	45.1	45.1	50	27.6	2	5	270	0.00	30.176 
13:15	45.7	45.7	45.7	50	28.1	3	6	270	0.00	30.164 
13:20	46.0	44.2	46.0	47	26.9	4	6	292	0.00	30.164 
13:25	46.2	46.2	46.2	50	28.6	3	7	270	0.00	30.164 
13:30	46.1	44.4	46.1	46	26.5	4	7	292	0.00	30.167 
13:35	46.0	46.0	46.0	47	26.9	2	6	270	0.00	30.167 
13:40	46.1	46.1	46.1	46	26.5	2	5	315	0.00	30.167 
13:45	46.2	46.2	46.2	46	26.6	2	7	292	0.00	30.161 
13:50	46.7	46.7	46.7	45	26.5	2	6	270	0.00	30.161 
13:55	47.0	47.0	47.0	46	27.3	2	4	315	0.00	30.161 
14:00	47.6	47.6	47.6	43	26.2	3	6	292	0.00	30.159 
14:05	47.3	47.3	47.3	44	26.5	3	7	270	0.00	30.159 
14:10	47.0	47.0	47.0	43	25.7	2	5	270	0.00	30.159 
14:15	46.5	46.5	46.5	45	26.3	2	5	270	0.00	30.160 
14:20	46.2	46.2	46.2	42	24.4	3	6	292	0.00	30.160 
14:25	46.2	46.2	46.2	43	25.0	2	5	292	0.00	30.160 
14:30	46.5	46.5	46.5	42	24.7	3	6	270	0.00	30.159 
14:35	46.2	46.2	46.2	37	21.4	3	6	292	0.00	30.159 
14:40	46.2	46.2	46.2	41	23.8	3	10	315	0.00	30.159 
14:45	46.2	46.2	46.2	41	23.8	3	6	292	0.00	30.159 
14:50	46.2	46.2	46.2	41	23.8	2	5	315	0.00	30.159 
14:55	46.0	46.0	46.0	42	24.2	1	3	292	0.00	30.159 
15:00	46.0	46.0	46.0	41	23.6	3	7	292	0.00	30.150 
15:05	46.4	46.4	46.4	44	25.7	3	6	292	0.00	30.150 
15:10	46.8	46.8	46.8	43	25.5	1	3	270	0.00	30.150 
15:15	47.3	47.3	47.3	43	25.9	2	5	270	0.00	30.144 
15:20	47.1	47.1	47.1	43	25.8	2	4	270	0.00	30.144 
15:25	46.8	46.8	46.8	43	25.5	2	6	270	0.00	30.144 
15:30	46.5	46.5	46.5	42	24.7	2	4	270	0.00	30.145 
15:35	46.5	46.5	46.5	44	25.8	1	3	248	0.00	30.145 
15:40	46.5	46.5	46.5	43	25.2	1	4	248	0.00	30.145 
15:45	46.2	46.2	46.2	42	24.4	2	7	315	0.00	30.146 
15:50	45.8	45.8	45.8	42	24.0	3	6	292	0.00	30.146 
15:55	46.0	46.0	46.0	43	24.8	2	5	315	0.00	30.146 
16:00	46.0	46.0	46.0	43	24.8	2	4	270	0.00	30.145 
16:05	46.0	46.0	46.0	42	24.2	2	7	270	0.00	30.145 
16:10	46.0	46.0	46.0	41	23.6	2	5	292	0.00	30.145 
16:15	46.0	46.0	46.0	41	23.6	2	6	338	0.00	30.147 
16:20	46.0	46.0	46.0	41	23.6	2	6	270	0.00	30.147 
16:25	46.0	46.0	46.0	42	24.2	2	7	270	0.00	30.147 
16:30	45.5	45.5	45.5	41	23.2	2	5	292	0.00	30.145 
16:35	45.4	45.4	45.4	42	23.7	2	7	292	0.00	30.145 
16:40	45.2	45.2	45.2	43	24.0	2	5	270	0.00	30.145 
16:45	45.1	45.1	45.1	44	24.5	1	4	270	0.00	30.145 
16:50	44.8	44.8	44.8	44	24.2	2	5	292	0.00	30.145 
16:55	44.6	44.6	44.6	45	24.6	1	5	315	0.00	30.145 
17:00	44.6	44.6	44.6	46	25.1	0	2	315	0.00	30.145 
17:05	44.5	44.5	44.5	46	25.0	1	4	315	0.00	30.145 
17:10	44.5	44.5	44.5	47	25.5	0	3	248	0.00	30.145 
17:15	44.5	44.5	44.5	48	26.0	1	4	248	0.00	30.149 
17:20	44.3	44.3	44.3	49	26.4	1	4	248	0.00	30.149 
17:25	44.3	44.3	44.3	49	26.4	2	6	270	0.00	30.149 
17:30	44.2	44.2	44.2	50	26.8	2	5	270	0.00	30.151 
17:35	44.2	44.2	44.2	51	27.2	1	4	270	0.00	30.151 
17:40	44.1	44.1	44.1	52	27.6	1	6	270	0.00	30.151 
17:45	44.1	44.1	44.1	52	27.6	1	4	270	0.00	30.151 
17:50	43.9	43.9	43.9	53	27.9	2	5	270	0.00	30.151 
17:55	43.9	43.9	43.9	53	27.9	2	7	270	0.00	30.151 
18:00	43.9	43.9	43.9	54	28.3	2	5	270	0.00	30.151 
18:05	43.8	43.8	43.8	54	28.3	0	3	248	0.00	30.151 
18:10	43.8	43.8	43.8	54	28.3	1	5	270	0.00	30.151 
18:15	43.8	43.8	43.8	54	28.3	1	4	248	0.00	30.156 
18:20	43.6	43.6	43.6	55	28.5	2	6	248	0.00	30.156 
18:25	43.6	43.6	43.6	55	28.5	2	6	270	0.00	30.156 
18:30	43.5	43.5	43.5	56	28.9	1	4	270	0.00	30.160 
18:35	43.5	43.5	43.5	56	28.9	1	4	270	0.00	30.160 
18:40	43.3	43.3	43.3	56	28.7	3	5	270	0.00	30.160 
18:45	43.3	43.3	43.3	57	29.1	2	5	270	0.00	30.158 
18:50	43.3	43.3	43.3	58	29.5	1	3	248	0.00	30.158 
18:55	43.2	43.2	43.2	58	29.4	1	5	248	0.00	30.158 
19:00	43.1	43.1	43.1	58	29.3	2	5	248	0.00	30.161 
19:05	43.1	43.1	43.1	59	29.8	2	5	248	0.00	30.161 
19:10	42.9	42.9	42.9	60	30.0	2	5	248	0.00	30.161 
19:15	42.9	42.9	42.9	60	30.0	1	5	270	0.00	30.169 
19:20	42.8	42.8	42.8	61	30.3	2	5	270	0.00	30.169 
19:25	42.8	42.8	42.8	62	30.7	1	4	248	0.00	30.169 
19:30	42.6	42.6	42.6	62	30.5	1	3	248	0.00	30.163 
19:35	42.6	42.6	42.6	63	30.9	1	3	248	0.00	30.163 
19:40	42.5	42.5	42.5	63	30.8	1	4	270	0.00	30.163 
19:45	42.3	42.3	42.3	64	31.0	1	5	270	0.00	30.163 
19:50	42.3	42.3	42.3	64	31.0	1	4	248	0.00	30.163 
19:55	42.2	42.2	42.2	64	30.9	2	5	248	0.00	30.163 
20:00	42.2	42.2	42.2	65	31.3	1	5	292	0.00	30.156 
20:05	42.1	42.1	42.1	65	31.2	1	4	248	0.00	30.156 
20:10	41.9	41.9	41.9	65	31.0	1	5	270	0.00	30.156 
20:15	41.8	41.8	41.8	65	30.9	1	4	270	0.00	30.153 
20:20	41.6	41.6	41.6	65	30.7	1	3	315	0.00	30.153 
20:25	41.5	41.5	41.5	66	31.0	1	3	292	0.00	30.153 
20:30	41.3	41.3	41.3	66	30.8	1	4	292	0.00	30.158 
20:35	41.3	41.3	41.3	66	30.8	1	3	292	0.00	30.158 
20:40	41.3	41.3	41.3	66	30.8	1	3	292	0.00	30.158 
20:45	41.3	41.3	41.3	66	30.8	1	3	292	0.00	30.158 
20:50	41.3	41.3	41.3	66	30.8	0	2	292	0.00	30.158 
20:55	41.3	41.3	41.3	67	31.2	0	2	292	0.00	30.158 
21:00	41.3	41.3	41.3	67	31.2	1	4	292	0.00	30.158 
21:05	41.3	41.3	41.3	67	31.2	0	2	292	0.00	30.158 
21:10	41.3	41.3	41.3	67	31.2	1	3	292	0.00	30.158 
21:15	41.3	41.3	41.3	67	31.2	1	3	292	0.00	30.159 
21:20	41.3	41.3	41.3	67	31.2	1	3	292	0.00	30.159 
21:25	41.3	41.3	41.3	68	31.5	1	3	292	0.00	30.159 
21:30	41.3	41.3	41.3	69	31.9	1	4	292	0.00	30.166 
21:35	41.2	41.2	41.2	69	31.8	0	3	270	0.00	30.166 
21:40	41.1	41.1	41.1	70	32.1	1	4	270	0.00	30.166 
21:45	40.9	40.9	40.9	71	32.2	2	4	292	0.00	30.171 
21:50	40.8	40.8	40.8	72	32.5	1	4	315	0.00	30.171 
21:55	40.6	40.6	40.6	72	32.3	2	6	270	0.00	30.171 
22:00	40.6	40.6	40.6	71	31.9	3	5	315	0.00	30.166 
22:05	40.5	40.5	40.5	72	32.2	1	3	315	0.00	30.166 
22:10	40.5	40.5	40.5	72	32.2	1	5	315	0.00	30.166 
22:15	40.3	40.3	40.3	72	32.0	1	5	270	0.00	30.165 
22:20	40.1	40.1	40.1	72	31.8	1	5	270	0.00	30.165 
22:25	39.9	39.9	39.9	72	31.6	2	5	315	0.00	30.165 
22:30	39.8	39.8	39.8	73	31.9	1	4	292	0.00	30.171 
22:35	39.6	39.6	39.6	73	31.7	1	5	270	0.00	30.171 
22:40	39.3	39.3	39.3	73	31.4	1	3	270	0.00	30.171 
22:45	39.3	39.3	39.3	73	31.4	2	5	270	0.00	30.173 
22:50	39.2	39.2	39.2	73	31.3	1	3	270	0.00	30.173 
22:55	39.1	39.1	39.1	73	31.2	1	3	270	0.00	30.173 
23:00	38.8	38.8	38.8	74	31.2	1	3	270	0.00	30.173 
23:05	38.6	38.6	38.6	74	31.0	1	3	270	0.00	30.173 
23:10	38.5	38.5	38.5	74	30.9	0	1	270	0.00	30.173 
23:15	38.3	38.3	38.3	75	31.1	1	2	270	0.00	30.180 
23:20	38.2	38.2	38.2	75	31.0	1	3	270	0.00	30.180 
23:25	38.0	38.0	38.0	75	30.8	1	3	270	0.00	30.180 
23:30	37.9	37.9	37.9	76	31.0	0	2	270	0.00	30.182 
23:35	37.8	37.8	37.8	76	30.9	0	2	270	0.00	30.182 
23:40	37.6	37.6	37.6	77	31.1	1	3	270	0.00	30.182 
23:45	37.5	37.5	37.5	77	31.0	0	2	270	0.00	30.181 
23:50	37.2	37.2	37.2	77	30.7	0	1	270	0.00	30.181 
23:55	37.0	37.0	37.0	77	30.5	0	1	270	0.00	30.181 

CoCoRaHS
IN-AL-39
A2 Web Hosting
Creative Commons License
GoDaddy
search engine by freefind advanced

loaded 2018-11-15 13:34:00 • last modified 2010-11-18 10:43:29
Privacy PolicyDisclaimer
• wx.awcolley.com is powered by PmWiki v.2002016 •
• all content (unless otherwise noted) © 2018 A W Colley